Decoded Metar for PAPH (PORT HEIDEN in AK, USA) (IATA:PTH) | Meteo·Mobile Aviation Weather
aviador You're here:

PAPH Decoded Metar

PORT HEIDEN in AK, USA
Report Time2018-08-22 05:56:00
UTC Time2018-08-22 06:57:47
Flight Rules ifr IFR
Wind250° at 09 kt
W.Decomp.*RWY 23: 9.0 kt HW 0.6 kt RCW
RWY 31: 2.2 kt HW 8.7 kt LCW
W.Rank250° ranks 5
Current wind is below 250° avg. (11.0)
Visibility9999 m
Phenomena:N/A
Clouds:Overcast 009 Hf
Expected CloudBase > 800 ft AGL from Temp-Dew spread
Ceiling900 ft
Temp11°C (ISA -4)
Dew Point09°C (88% RH)
AAT7.6°C
QNH1017 hPa
Density Alt-341 ft
Elevation95 ft
Report Wrong Elevation
Raw Report
PAPH 220556Z AUTO 25009KT 10SM OVC009 11/09 A3002 RMK AO2 SLP168
T01060094 10122 20106 53009=

Extra information for PAPH:More info

Metar Taf Metar & Taf Last 4 Metars F.Rules Stats Wind Profile Meteogram Temp Stats Airport Information Weather charts Add Link Nearby VenuesMetar ALERT Operation Metar Decoded Social comments

AIRNAV info for PAPH